createdAt,value
2022-08-11T00:02:01.256Z,59.53
2022-08-11T00:04:37.110Z,59.44
2022-08-11T00:07:06.964Z,59.70
2022-08-11T00:09:40.218Z,59.45
2022-08-11T00:12:16.895Z,59.50
2022-08-11T00:14:46.586Z,59.47
2022-08-11T00:17:16.931Z,59.72
2022-08-11T00:20:14.134Z,60.05
2022-08-11T00:22:41.943Z,59.65
2022-08-11T00:25:16.089Z,59.86
2022-08-11T00:27:44.854Z,59.79
2022-08-11T00:30:14.450Z,59.73
2022-08-11T00:32:58.978Z,59.88
2022-08-11T00:35:52.127Z,59.82
2022-08-11T00:38:25.821Z,60.36
2022-08-11T00:40:59.552Z,59.60
2022-08-11T00:43:43.135Z,59.55
2022-08-11T00:46:26.196Z,60.04
2022-08-11T00:48:56.873Z,60.11
2022-08-11T00:52:05.661Z,60.24
2022-08-11T00:54:56.077Z,59.77
2022-08-11T00:58:02.772Z,60.02
2022-08-11T01:00:35.451Z,60.05
2022-08-11T01:03:20.414Z,59.96
2022-08-11T01:06:21.211Z,60.21
2022-08-11T01:09:08.955Z,60.14
2022-08-11T01:11:56.308Z,60.54
2022-08-11T01:14:48.069Z,60.64
2022-08-11T01:17:50.453Z,60.54
2022-08-11T01:20:49.705Z,60.54
2022-08-11T01:23:36.864Z,60.61
2022-08-11T01:26:39.066Z,60.76
2022-08-11T01:29:22.106Z,60.77
2022-08-11T01:32:17.954Z,60.61
2022-08-11T01:35:01.519Z,60.34
2022-08-11T01:38:00.102Z,60.73
2022-08-11T01:40:43.220Z,61.02
2022-08-11T01:43:33.037Z,60.92
2022-08-11T01:46:13.091Z,61.20
2022-08-11T01:48:49.617Z,61.36
2022-08-11T01:51:30.385Z,61.05
2022-08-11T01:54:01.543Z,60.86
2022-08-11T01:56:38.560Z,61.37
2022-08-11T01:59:33.646Z,61.48
2022-08-11T02:02:21.263Z,61.65
2022-08-11T02:05:45.102Z,61.56
2022-08-11T02:08:22.312Z,61.78
2022-08-11T02:11:31.217Z,61.85
2022-08-11T02:14:03.421Z,62.11
2022-08-11T02:16:53.343Z,62.22
2022-08-11T02:19:58.482Z,61.99
2022-08-11T02:22:51.416Z,62.53
2022-08-11T02:25:41.298Z,62.30
2022-08-11T02:28:29.472Z,62.27
2022-08-11T02:32:24.924Z,62.38
2022-08-11T02:34:42.840Z,62.27
2022-08-11T02:37:24.569Z,62.60
2022-08-11T02:40:12.905Z,62.38
2022-08-11T02:42:46.846Z,62.92
2022-08-11T02:45:30.317Z,62.75
2022-08-11T02:48:30.651Z,62.85
2022-08-11T02:51:29.975Z,63.00
2022-08-11T02:54:35.297Z,63.00
2022-08-11T02:57:34.627Z,63.26
2022-08-11T03:00:10.582Z,63.13
2022-08-11T03:02:43.770Z,63.35
2022-08-11T03:05:17.670Z,62.96
2022-08-11T03:07:58.842Z,63.18
2022-08-11T03:10:33.051Z,62.88
2022-08-11T03:13:28.784Z,63.02
2022-08-11T03:16:38.789Z,63.04
2022-08-11T03:19:31.518Z,63.22
2022-08-11T03:22:22.821Z,63.48
2022-08-11T03:25:15.281Z,63.71
2022-08-11T03:27:58.030Z,63.58
2022-08-11T03:30:54.703Z,63.78
2022-08-11T03:33:48.675Z,64.23
2022-08-11T03:36:22.540Z,64.42
2022-08-11T03:39:08.538Z,64.29
2022-08-11T03:42:01.788Z,64.24
2022-08-11T03:44:50.547Z,64.28
2022-08-11T03:47:55.122Z,64.49
2022-08-11T03:50:35.591Z,64.60
2022-08-11T03:53:29.766Z,64.47
2022-08-11T03:56:39.064Z,64.44
2022-08-11T03:59:17.401Z,64.56
2022-08-11T04:02:05.318Z,64.46
2022-08-11T04:05:11.399Z,64.52
2022-08-11T04:08:11.339Z,64.39
2022-08-11T04:10:58.316Z,64.52
2022-08-11T04:14:24.423Z,64.50
2022-08-11T04:17:23.295Z,64.23
2022-08-11T04:20:05.286Z,64.67
2022-08-11T04:22:50.300Z,64.34
2022-08-11T04:25:18.481Z,64.34
2022-08-11T04:28:08.476Z,64.36
2022-08-11T04:31:51.156Z,64.15
2022-08-11T04:34:21.834Z,64.20
2022-08-11T04:37:23.622Z,64.27
2022-08-11T04:40:03.557Z,64.25
2022-08-11T04:43:08.593Z,64.38
2022-08-11T04:46:12.267Z,64.21
2022-08-11T04:49:33.911Z,64.21
2022-08-11T04:53:00.197Z,64.15
2022-08-11T04:56:30.958Z,64.10
2022-08-11T04:59:46.632Z,64.06
2022-08-11T05:02:33.200Z,64.16
2022-08-11T05:05:26.201Z,64.18
2022-08-11T05:08:03.579Z,64.19
2022-08-11T05:10:50.017Z,63.86
2022-08-11T05:13:48.850Z,64.07
2022-08-11T05:16:40.597Z,63.95
2022-08-11T05:19:35.946Z,63.95
2022-08-11T05:22:27.518Z,63.74
2022-08-11T05:26:44.062Z,63.57
2022-08-11T05:28:49.628Z,63.60
2022-08-11T05:31:39.501Z,63.79
2022-08-11T05:34:53.026Z,63.69
2022-08-11T05:37:29.875Z,63.17
2022-08-11T05:40:25.608Z,63.00
2022-08-11T05:43:31.765Z,62.73
2022-08-11T05:46:21.309Z,62.33
2022-08-11T05:49:09.337Z,62.08
2022-08-11T05:52:05.890Z,61.31
2022-08-11T05:55:06.414Z,61.07
2022-08-11T05:57:50.995Z,60.47
2022-08-11T06:00:24.409Z,60.15
2022-08-11T06:02:57.637Z,59.77
2022-08-11T06:05:38.542Z,59.54
2022-08-11T06:08:13.964Z,59.24
2022-08-11T06:10:44.384Z,58.51
2022-08-11T06:13:17.069Z,58.14
2022-08-11T06:15:48.457Z,57.85
2022-08-11T06:18:17.680Z,57.30
2022-08-11T06:20:49.881Z,56.96
2022-08-11T06:23:36.148Z,54.93
2022-08-11T06:26:10.880Z,54.93
2022-08-11T06:28:41.727Z,54.65
2022-08-11T06:31:20.464Z,54.58
2022-08-11T06:33:51.576Z,54.76
2022-08-11T06:36:58.256Z,54.68
2022-08-11T06:39:40.688Z,54.31
2022-08-11T06:42:26.853Z,53.83
2022-08-11T06:45:13.415Z,52.54
2022-08-11T06:47:47.899Z,52.44
2022-08-11T06:50:40.221Z,52.64
2022-08-11T06:53:10.721Z,51.92
2022-08-11T06:56:00.984Z,52.15
2022-08-11T06:58:51.943Z,51.87
2022-08-11T07:02:06.260Z,50.44
2022-08-11T07:04:43.367Z,50.41
2022-08-11T07:07:36.086Z,49.82
2022-08-11T07:10:39.029Z,49.07
2022-08-11T07:13:45.088Z,48.40
2022-08-11T07:16:16.493Z,49.15
2022-08-11T07:19:06.955Z,49.16
2022-08-11T07:26:00.026Z,48.51
2022-08-11T07:28:53.394Z,48.45
2022-08-11T07:31:27.543Z,47.72
2022-08-11T07:34:23.173Z,48.36
2022-08-11T07:36:56.690Z,47.48
2022-08-11T07:39:28.385Z,47.52
2022-08-11T07:41:59.770Z,47.41
2022-08-11T07:44:35.139Z,47.29
2022-08-11T07:47:22.884Z,47.24
2022-08-11T07:50:14.952Z,47.44
2022-08-11T07:52:43.766Z,47.59
2022-08-11T07:55:16.313Z,47.19
2022-08-11T07:58:16.339Z,47.17
2022-08-11T08:01:21.408Z,47.66
2022-08-11T08:04:10.072Z,46.47
2022-08-11T08:06:58.883Z,46.08
2022-08-11T08:09:46.342Z,45.85
2022-08-11T08:12:34.564Z,45.78
2022-08-11T08:15:26.989Z,45.25
2022-08-11T08:18:20.378Z,45.32
2022-08-11T08:20:49.826Z,45.17
2022-08-11T08:23:33.736Z,45.90
2022-08-11T08:26:04.847Z,46.13
2022-08-11T08:28:33.992Z,45.92
2022-08-11T08:31:02.810Z,45.73
2022-08-11T08:33:32.535Z,45.61
2022-08-11T08:36:15.191Z,45.51
2022-08-11T08:38:54.433Z,45.73
2022-08-11T08:41:30.466Z,46.11
2022-08-11T08:44:36.647Z,46.20
2022-08-11T08:46:59.095Z,46.02
2022-08-11T08:49:34.199Z,46.14
2022-08-11T08:52:27.828Z,46.17
2022-08-11T08:55:05.199Z,46.03
2022-08-11T08:57:39.395Z,46.30
2022-08-11T09:00:12.897Z,46.09
2022-08-11T09:02:45.606Z,45.40
2022-08-11T09:05:18.473Z,45.13
2022-08-11T09:07:50.102Z,45.36
2022-08-11T09:10:20.471Z,45.17
2022-08-11T09:12:50.514Z,44.87
2022-08-11T09:15:20.237Z,45.11
2022-08-11T09:17:52.626Z,45.52
2022-08-11T09:20:25.390Z,45.34
2022-08-11T09:26:30.449Z,45.81
2022-08-11T09:29:01.781Z,45.45
2022-08-11T09:31:39.705Z,44.86
2022-08-11T09:34:14.004Z,45.01
2022-08-11T09:37:54.606Z,44.78
2022-08-11T09:40:31.305Z,44.53
2022-08-11T09:43:25.732Z,44.36
2022-08-11T09:45:56.140Z,43.87
2022-08-11T09:48:30.655Z,43.08
2022-08-11T09:51:00.649Z,43.03
2022-08-11T09:53:36.356Z,42.99
2022-08-11T09:56:47.832Z,43.45
2022-08-11T09:59:18.934Z,43.81
2022-08-11T10:01:50.987Z,43.26
2022-08-11T10:04:24.964Z,43.71
2022-08-11T10:07:07.084Z,43.77
2022-08-11T10:09:46.843Z,43.42
2022-08-11T10:12:25.970Z,43.19
2022-08-11T10:15:17.680Z,43.72
2022-08-11T10:18:07.716Z,43.71
2022-08-11T10:20:38.153Z,43.85
2022-08-11T10:23:28.772Z,43.85
2022-08-11T10:26:16.610Z,43.60
2022-08-11T10:29:10.080Z,43.54
2022-08-11T10:31:57.530Z,43.83
2022-08-11T10:34:29.220Z,43.81
2022-08-11T10:37:03.174Z,43.50
2022-08-11T10:39:31.906Z,42.85
2022-08-11T10:42:34.958Z,42.70
2022-08-11T10:45:25.720Z,42.26
2022-08-11T10:47:56.393Z,42.22
2022-08-11T10:50:44.348Z,42.04
2022-08-11T10:53:33.299Z,42.05
2022-08-11T10:56:22.076Z,42.06
2022-08-11T10:58:51.538Z,42.29
2022-08-11T11:01:28.827Z,42.43
2022-08-11T11:04:01.549Z,42.43
2022-08-11T11:06:47.623Z,42.36
2022-08-11T11:09:33.188Z,42.66
2022-08-11T11:12:32.382Z,42.56
2022-08-11T11:15:22.601Z,41.80
2022-08-11T11:18:15.892Z,41.91
2022-08-11T11:20:47.665Z,42.02
2022-08-11T11:23:24.529Z,41.53
2022-08-11T11:26:27.026Z,41.55
2022-08-11T11:29:26.498Z,41.85
2022-08-11T11:32:16.191Z,41.67
2022-08-11T11:35:02.324Z,41.58
2022-08-11T11:37:35.654Z,42.04
2022-08-11T11:40:30.504Z,42.40
2022-08-11T11:43:00.700Z,43.03
2022-08-11T11:45:29.877Z,42.70
2022-08-11T11:48:00.025Z,42.80
2022-08-11T11:50:31.793Z,43.16
2022-08-11T11:53:04.794Z,43.34
2022-08-11T11:55:33.336Z,43.27
2022-08-11T11:58:22.074Z,43.59
2022-08-11T12:01:12.493Z,43.35
2022-08-11T12:03:42.171Z,43.18
2022-08-11T12:06:15.345Z,43.06
2022-08-11T12:08:45.058Z,42.41
2022-08-11T12:11:32.563Z,42.10
2022-08-11T12:14:10.754Z,42.16
2022-08-11T12:16:44.588Z,42.63
2022-08-11T12:19:36.103Z,42.57
2022-08-11T12:22:23.539Z,42.35
2022-08-11T12:25:10.750Z,42.48
2022-08-11T12:27:40.861Z,42.61
2022-08-11T12:30:09.873Z,42.76
2022-08-11T12:32:40.783Z,42.77
2022-08-11T12:35:09.679Z,42.69
2022-08-11T12:37:45.265Z,42.79
2022-08-11T12:40:43.373Z,42.67
2022-08-11T12:43:43.359Z,43.05
2022-08-11T12:46:23.941Z,42.95
2022-08-11T12:49:16.592Z,43.14
2022-08-11T12:52:11.442Z,43.13
2022-08-11T12:55:13.525Z,43.30
2022-08-11T12:58:05.497Z,43.13
2022-08-11T13:00:52.907Z,43.58
2022-08-11T13:03:41.398Z,44.46
2022-08-11T13:06:11.179Z,45.48
2022-08-11T13:08:42.511Z,46.13
2022-08-11T13:11:56.479Z,47.04
2022-08-11T13:14:19.109Z,48.16
2022-08-11T13:17:06.444Z,48.91
2022-08-11T13:19:35.803Z,49.19
2022-08-11T13:22:07.383Z,50.36
2022-08-11T13:24:37.185Z,50.62
2022-08-11T13:27:06.958Z,51.67
2022-08-11T13:29:36.301Z,52.23
2022-08-11T13:32:26.414Z,53.66
2022-08-11T13:34:55.290Z,54.03
2022-08-11T13:38:19.313Z,54.46
2022-08-11T13:40:14.593Z,54.31
2022-08-11T13:42:44.696Z,54.60
2022-08-11T13:45:14.312Z,55.27
2022-08-11T13:47:43.523Z,55.10
2022-08-11T13:50:15.021Z,55.66
2022-08-11T13:52:43.569Z,55.12
2022-08-11T13:55:33.226Z,55.13
2022-08-11T13:58:20.695Z,55.40
2022-08-11T14:01:00.502Z,55.21
2022-08-11T14:04:30.359Z,55.44
2022-08-11T14:06:31.797Z,55.62
2022-08-11T14:09:00.600Z,55.57
2022-08-11T14:12:21.778Z,55.40
2022-08-11T14:14:38.138Z,55.20
2022-08-11T14:17:10.115Z,55.58
2022-08-11T14:19:42.896Z,55.34
2022-08-11T14:22:15.758Z,55.29
2022-08-11T14:24:49.898Z,55.26
2022-08-11T14:28:32.303Z,55.05
2022-08-11T14:30:28.184Z,54.93
2022-08-11T14:32:57.480Z,54.73
2022-08-11T14:35:32.764Z,54.68
2022-08-11T14:38:01.905Z,54.44
2022-08-11T14:40:56.300Z,54.13
2022-08-11T14:44:12.963Z,53.85
2022-08-11T14:46:52.521Z,53.66
2022-08-11T14:49:22.271Z,53.75
2022-08-11T14:51:55.304Z,53.72
2022-08-11T14:54:48.076Z,53.69
2022-08-11T14:57:55.370Z,53.41
2022-08-11T15:00:31.610Z,53.72
2022-08-11T15:03:13.944Z,53.62
2022-08-11T15:05:45.129Z,53.68
2022-08-11T15:08:53.769Z,53.81
2022-08-11T15:11:48.806Z,53.90
2022-08-11T15:14:38.836Z,53.96
2022-08-11T15:17:10.217Z,54.04
2022-08-11T15:20:02.123Z,54.50
2022-08-11T15:22:49.235Z,54.27
2022-08-11T15:25:17.739Z,54.21
2022-08-11T15:28:09.573Z,54.27
2022-08-11T15:30:57.250Z,54.47
2022-08-11T15:33:46.602Z,54.75
2022-08-11T15:36:34.400Z,54.62
2022-08-11T15:39:13.527Z,54.63
2022-08-11T15:42:16.580Z,54.69
2022-08-11T15:45:15.522Z,54.74
2022-08-11T15:48:05.124Z,54.92
2022-08-11T15:50:40.466Z,54.95
2022-08-11T15:53:20.379Z,55.09
2022-08-11T15:55:49.133Z,55.10
2022-08-11T15:58:38.656Z,55.09
2022-08-11T16:01:27.262Z,55.23
2022-08-11T16:04:12.818Z,55.33
2022-08-11T16:06:50.099Z,55.59
2022-08-11T16:09:23.802Z,55.78
2022-08-11T16:11:55.423Z,55.64
2022-08-11T16:14:44.516Z,55.90
2022-08-11T16:17:17.639Z,56.18
2022-08-11T16:19:49.091Z,56.05
2022-08-11T16:22:28.562Z,56.23
2022-08-11T16:27:01.928Z,56.33
2022-08-11T16:27:49.926Z,56.57
2022-08-11T16:30:18.940Z,56.47
2022-08-11T16:32:53.730Z,56.84
2022-08-11T16:35:43.334Z,56.70
2022-08-11T16:38:32.717Z,57.14
2022-08-11T16:41:06.211Z,56.98
2022-08-11T16:44:05.137Z,57.26
2022-08-11T16:46:40.899Z,57.38
2022-08-11T16:49:12.266Z,57.65
2022-08-11T16:51:40.592Z,57.51
2022-08-11T16:54:08.934Z,57.47
2022-08-11T16:56:42.451Z,57.76
2022-08-11T16:59:18.026Z,58.10
2022-08-11T17:01:54.199Z,58.01
2022-08-11T17:04:56.795Z,58.02
2022-08-11T17:07:47.829Z,58.06
2022-08-11T17:10:51.329Z,58.11
2022-08-11T17:13:29.467Z,58.20
2022-08-11T17:16:09.422Z,58.24
2022-08-11T17:19:02.670Z,58.36
2022-08-11T17:21:37.411Z,58.33
2022-08-11T17:24:14.459Z,58.28
2022-08-11T17:26:56.987Z,58.18
2022-08-11T17:29:29.879Z,58.15
2022-08-11T17:32:20.246Z,58.04
2022-08-11T17:35:09.414Z,57.78
2022-08-11T17:37:38.896Z,57.56
2022-08-11T17:40:12.488Z,57.77
2022-08-11T17:43:02.347Z,57.63
2022-08-11T17:45:49.665Z,57.41
2022-08-11T17:48:27.848Z,57.64
2022-08-11T17:51:11.566Z,57.66
2022-08-11T17:54:23.944Z,57.93
2022-08-11T17:57:20.212Z,58.04
2022-08-11T17:59:56.495Z,58.14
2022-08-11T18:02:49.409Z,58.28
2022-08-11T18:05:20.198Z,58.28
2022-08-11T18:08:10.506Z,58.43
2022-08-11T18:10:59.858Z,58.90
2022-08-11T18:13:49.972Z,59.17
2022-08-11T18:16:37.845Z,59.52
2022-08-11T18:19:30.848Z,60.03
2022-08-11T18:22:26.640Z,59.70
2022-08-11T18:25:24.976Z,60.40
2022-08-11T18:28:14.695Z,60.40
2022-08-11T18:31:04.595Z,60.89
2022-08-11T18:34:09.252Z,61.11
2022-08-11T18:37:20.226Z,61.59
2022-08-11T18:40:15.787Z,61.41
2022-08-11T18:43:04.891Z,61.44
2022-08-11T18:46:07.059Z,61.47
2022-08-11T18:48:56.637Z,61.82
2022-08-11T18:51:44.466Z,61.68
2022-08-11T18:54:32.685Z,61.75
2022-08-11T18:57:25.212Z,62.09
2022-08-11T19:00:12.606Z,62.72
2022-08-11T19:03:00.955Z,62.67
2022-08-11T19:06:35.867Z,63.07
2022-08-11T19:09:05.707Z,62.93
2022-08-11T19:11:53.475Z,63.42
2022-08-11T19:14:43.869Z,63.66
2022-08-11T19:17:43.497Z,63.76
2022-08-11T19:20:38.744Z,64.28
2022-08-11T19:23:28.632Z,64.43
2022-08-11T19:26:17.440Z,64.63
2022-08-11T19:29:07.725Z,64.39
2022-08-11T19:31:56.957Z,64.64
2022-08-11T19:34:45.412Z,64.81
2022-08-11T19:37:32.499Z,65.02
2022-08-11T19:40:28.487Z,64.91
2022-08-11T19:43:25.994Z,64.98
2022-08-11T19:46:17.232Z,65.13
2022-08-11T19:49:07.438Z,65.07
2022-08-11T19:51:56.237Z,65.02
2022-08-11T19:54:49.060Z,65.37
2022-08-11T19:57:40.226Z,65.66
2022-08-11T20:00:39.485Z,65.65
2022-08-11T20:03:29.565Z,65.66
2022-08-11T20:06:20.078Z,65.48
2022-08-11T20:09:08.285Z,66.04
2022-08-11T20:12:01.802Z,66.21
2022-08-11T20:14:53.485Z,66.58
2022-08-11T20:17:43.434Z,66.21
2022-08-11T20:20:32.762Z,66.70
2022-08-11T20:23:25.101Z,66.81
2022-08-11T20:26:30.303Z,67.00
2022-08-11T20:29:20.615Z,67.14
2022-08-11T20:32:09.581Z,66.90
2022-08-11T20:34:59.087Z,66.95
2022-08-11T20:37:50.971Z,66.97
2022-08-11T20:40:43.582Z,66.78
2022-08-11T20:44:06.126Z,67.10
2022-08-11T20:46:42.151Z,67.16
2022-08-11T20:49:40.907Z,67.60
2022-08-11T20:52:37.849Z,67.30
2022-08-11T20:55:51.749Z,67.62
2022-08-11T20:59:11.033Z,67.37
2022-08-11T21:01:45.479Z,67.56
2022-08-11T21:04:33.459Z,67.32
2022-08-11T21:07:28.763Z,67.25
2022-08-11T21:10:23.215Z,67.41
2022-08-11T21:13:25.593Z,67.69
2022-08-11T21:16:26.543Z,67.77
2022-08-11T21:19:55.133Z,67.89
2022-08-11T21:22:58.685Z,67.61
2022-08-11T21:25:59.427Z,67.83
2022-08-11T21:28:47.977Z,67.61
2022-08-11T21:31:37.160Z,68.15
2022-08-11T21:34:27.233Z,67.93
2022-08-11T21:37:14.891Z,67.75
2022-08-11T21:40:03.830Z,68.16
2022-08-11T21:42:57.199Z,68.43
2022-08-11T21:45:46.081Z,68.52
2022-08-11T21:48:33.645Z,68.64
2022-08-11T21:51:20.522Z,68.71
2022-08-11T21:54:08.247Z,68.96
2022-08-11T21:56:55.930Z,68.83
2022-08-11T21:59:54.647Z,69.04
2022-08-11T22:02:43.774Z,69.00
2022-08-11T22:05:39.031Z,69.09
2022-08-11T22:08:27.542Z,69.46
2022-08-11T22:11:15.699Z,69.26
2022-08-11T22:14:07.632Z,69.23
2022-08-11T22:16:55.345Z,69.22
2022-08-11T22:19:43.424Z,69.82
2022-08-11T22:22:32.237Z,69.64
2022-08-11T22:25:21.739Z,69.28
2022-08-11T22:28:09.770Z,69.43
2022-08-11T22:30:57.735Z,69.29
2022-08-11T22:34:02.774Z,69.57
2022-08-11T22:36:52.638Z,69.41
2022-08-11T22:39:41.623Z,69.31
2022-08-11T22:42:33.954Z,69.60
2022-08-11T22:45:23.103Z,69.58
2022-08-11T22:48:11.136Z,69.89
2022-08-11T22:51:00.009Z,69.94
2022-08-11T22:53:57.931Z,70.09
2022-08-11T22:56:47.319Z,70.12
2022-08-11T22:59:36.153Z,69.93
2022-08-11T23:02:24.830Z,69.98
2022-08-11T23:05:12.664Z,70.33
2022-08-11T23:07:59.923Z,69.91
2022-08-11T23:10:47.060Z,70.47
2022-08-11T23:13:34.776Z,70.48
2022-08-11T23:16:22.578Z,70.26
2022-08-11T23:19:10.056Z,70.34
2022-08-11T23:21:58.046Z,70.12
2022-08-11T23:24:45.192Z,70.97
2022-08-11T23:27:33.669Z,70.29
2022-08-11T23:30:20.807Z,70.95
2022-08-11T23:33:17.397Z,70.91
2022-08-11T23:36:08.655Z,71.05
2022-08-11T23:38:55.979Z,70.96
2022-08-11T23:41:42.811Z,70.84
2022-08-11T23:44:29.662Z,70.88
2022-08-11T23:47:19.274Z,71.10
2022-08-11T23:50:07.311Z,71.08
2022-08-11T23:52:55.001Z,71.10
2022-08-11T23:55:42.065Z,70.84
2022-08-11T23:58:31.757Z,70.76
